Copenhagen, Denmark

12:26 AM CEST on October 01, 2014 (GMT +0200)
Kastrup | Change Station
CLOSE
Current Station
Personal Weather Station
Location: Kastrup,
Elevation: 13 ft
Nearby Weather Stations

Elev 13 ft 55.64 °N, 12.60 °E | Updated 0 second ago

Light Drizzle
Light Drizzle
56.1 °F
Feels Like 56.1 °F
N
3.1
Wind Variable Wind from ESE
Gusts 6.0 mph

Today
High -- | Low -- °F
--% Chance of Precip.
Yesterday
High -- | Low -- °F
Precip. -- in
7:11 AM 6:45 PM
Waxing Crescent, 40% visible
Pressure 30.30 in
Visibility 6.2 miles
Clouds Mostly Cloudy 5900 ft
Overcast 7600 ft
Dew Point 54 °F
Humidity 93%
Rainfall 0.00 in
Snow Depth Not available.
UV 0 out of 12
Pollen Not available.
Air Quality Not available.
Flu Activity Not available.
METAR ESMS 302220Z 10010KT 9999 -DZ BKN059 OVC076 12/11 Q1026

More Conditions Fewer Conditions

Pressure 30.30 in
Visibility 6.2 miles
Clouds Mostly Cloudy 5900 ft
Overcast 7600 ft
Dew Point 54 °F
Humidity 93%
Rainfall 0.00 in
Snow Depth Not available.
UV 0 out of 12
Pollen Not available.
Air Quality Not available.
Flu Activity Not available.
METAR ESMS 302220Z 10010KT 9999 -DZ BKN059 OVC076 12/11 Q1026

More Conditions Fewer Conditions

10-Day Weather Forecast

Almanac

Astronomy

Oct. 01, 2014 Rise Set
Actual Time 7:11 AM CEST 6:45 PM CEST
Civil Twilight 6:34 AM CEST 7:21 PM CEST
Nautical Twilight 5:51 AM CEST 8:04 PM CEST
Astronomical Twilight 5:07 AM CEST 8:49 PM CEST
Moon 2:44 PM CEST (10/1) 11:13 PM CEST (10/1)
Length of Visible Light 12h 46m
Length of Day
11h 33m
Tomorrow will be 4m 34s shorter.
Waxing Crescent, 40% of the Moon is Illuminated
Sep 30
Waxing Crescent
Oct 1
First Quarter
Oct 8
Full
Oct 15
Last Quarter
Oct 23
New

Yesterday's Extremes

Country Highs Country Lows

Community

WunderPhotos

Upload Photos

1,757,767 photos uploaded!

Nearby

Snow Depth

Not available.

Earthquake Activity

City Distance Mag. Time & Date
No recent earthquake activity has been reported nearby.
Minimum magnitude displayed is 2.5.

Coastal Water Temperatures

Place Temperature
No Stations Reporting

Nearby Weather Stations